»·PEaware :: AAL2258 KLAX-KPHX

AAL2258 :: KLAX-KPHX

FLIGHT INFORMATION

Flight Status: Arrived
Operator:
American Airlines
More flights by this operator :: More flights under this callsign
Pilot: Jeff F. (4445)
Aircraft: AIRBUS A319
(A319)
More flights by this aircraft type
Origin: KLAX Los Angeles Intl
United States
Destination: KPHX Phoenix Sky Harbor Intl
United States
More flights between these airports :: More routes between these airports
Route: DOTSS2 CNERY BLH HYDRR1
File this flight plan on PilotEdge
Remarks: Shared Cockpit!
Altitude:
(Current/Filed)
37,000ft
Speed:
(Current/Filed)
450kts
Departed: 15-May-19 11:56 AM
Arrived: 15-May-19 12:52 PM
Distance/Time
Traveled:
321nm/0:56
Distance/Time
To Go:
Arrived

Flight Plot

Page will automatically refresh every two minutes.


Map Options




Map Legend


Flown Route
Filed Route
Departure Airport
Arrival Airport
Navaid (VOR, NDB)
Fix

Horizontal Profiles

Position Reports

Time Latitude Longitude Heading Altitude Ground
Speed
15-May-19 11:27 33.941044 -118.405022 83 136ft 0kts
15-May-19 11:28 33.941044 -118.405022 83 136ft 0kts
15-May-19 11:29 33.941044 -118.405022 83 136ft 0kts
15-May-19 11:30 33.941044 -118.405022 83 136ft 0kts
15-May-19 11:31 33.941044 -118.405022 83 136ft 0kts
15-May-19 11:32 33.941044 -118.405022 83 136ft 0kts
15-May-19 11:33 33.941044 -118.405022 83 136ft 0kts
15-May-19 11:34 33.941044 -118.405022 83 136ft 0kts
15-May-19 11:35 33.941044 -118.405022 83 136ft 0kts
15-May-19 11:36 33.941044 -118.405022 83 136ft 0kts
15-May-19 11:37 33.941044 -118.405022 83 136ft 0kts
15-May-19 11:38 33.941044 -118.405022 83 136ft 0kts
15-May-19 11:39 33.941044 -118.405022 83 136ft 0kts
15-May-19 11:40 33.941044 -118.405022 83 136ft 0kts
15-May-19 11:41 33.941022 -118.405222 83 136ft 2kts
15-May-19 11:42 33.941329 -118.405671 176 136ft 1kts
15-May-19 11:43 33.941373 -118.405674 173 136ft 0kts
15-May-19 11:44 33.941373 -118.405674 173 136ft 0kts
15-May-19 11:45 33.941122 -118.405624 171 136ft 3kts
15-May-19 11:46 33.940105 -118.405483 175 136ft 0kts
15-May-19 11:47 33.939920 -118.405459 173 136ft 3kts
15-May-19 11:48 33.938339 -118.404233 82 136ft 11kts
15-May-19 11:49 33.938854 -118.399191 83 136ft 17kts
15-May-19 11:50 33.939495 -118.392942 82 136ft 19kts
15-May-19 11:51 33.940057 -118.387467 83 136ft 15kts
15-May-19 11:52 33.940551 -118.382549 85 136ft 12kts
15-May-19 11:53 33.940789 -118.380242 94 136ft 0kts
15-May-19 11:54 33.939928 -118.380074 213 136ft 7kts
15-May-19 11:55 33.937205 -118.405851 263 272ft 172kts
15-May-19 11:56 33.928088 -118.462891 235 2952ft 186kts
15-May-19 11:57 33.889045 -118.520674 229 4954ft 257kts
15-May-19 11:58 33.828915 -118.556551 169 8455ft 270kts
15-May-19 11:59 33.753405 -118.535699 170 10959ft 306kts
15-May-19 12:00 33.680206 -118.467782 113 12049ft 406kts
15-May-19 12:01 33.646346 -118.334641 103 14681ft 431kts
15-May-19 12:02 33.643954 -118.186470 94 16874ft 454kts
15-May-19 12:03 33.644066 -118.033407 94 17875ft 461kts
15-May-19 12:04 33.643834 -117.876237 94 19831ft 477kts
15-May-19 12:05 33.625100 -117.718141 111 21505ft 480kts
15-May-19 12:06 33.585987 -117.561509 111 22994ft 495kts
15-May-19 12:07 33.546196 -117.400893 111 24483ft 503kts
15-May-19 12:08 33.509064 -117.240590 105 26271ft 504kts
15-May-19 12:09 33.501847 -117.069541 94 27908ft 507kts
15-May-19 12:10 33.499685 -116.900144 94 29339ft 504kts
15-May-19 12:11 33.497046 -116.731019 94 30586ft 503kts
15-May-19 12:12 33.494181 -116.561754 94 31629ft 503kts
15-May-19 12:13 33.491190 -116.393508 94 32562ft 504kts
15-May-19 12:14 33.488801 -116.227609 94 33348ft 504kts
15-May-19 12:15 33.491263 -116.059787 86 34018ft 509kts
15-May-19 12:16 33.525203 -115.894683 71 34714ft 510kts
15-May-19 12:17 33.572878 -115.734455 71 35309ft 509kts
15-May-19 12:18 33.619370 -115.574425 72 35788ft 508kts
15-May-19 12:19 33.646546 -115.409316 89 36236ft 502kts
15-May-19 12:20 33.637280 -115.244863 105 36498ft 495kts
15-May-19 12:21 33.606768 -115.084714 101 36756ft 496kts
15-May-19 12:22 33.600085 -114.918466 94 36854ft 498kts
15-May-19 12:23 33.592592 -114.756766 101 35776ft 471kts
15-May-19 12:24 33.564919 -114.602926 107 33253ft 476kts
15-May-19 12:25 33.534362 -114.447383 106 30089ft 485kts
15-May-19 12:26 33.504441 -114.294761 106 26682ft 493kts
15-May-19 12:27 33.473710 -114.138418 106 24859ft 450kts
15-May-19 12:28 33.446734 -114.003170 107 24721ft 388kts
15-May-19 12:29 33.422297 -113.881949 107 24100ft 366kts
15-May-19 12:30 33.396384 -113.753942 106 23106ft 409kts
15-May-19 12:31 33.370302 -113.624629 106 21481ft 390kts
15-May-19 12:32 33.345055 -113.500571 106 19804ft 375kts
15-May-19 12:33 33.320653 -113.381955 106 18265ft 358kts
15-May-19 12:34 33.297391 -113.269311 107 16763ft 342kts
15-May-19 12:35 33.275900 -113.160033 101 15258ft 330kts
15-May-19 12:36 33.274204 -113.053531 91 14774ft 310kts
15-May-19 12:37 33.276959 -112.950795 92 13395ft 305kts
15-May-19 12:38 33.279468 -112.849895 92 12117ft 297kts
15-May-19 12:39 33.304295 -112.756241 68 10860ft 297kts
15-May-19 12:40 33.337700 -112.667799 68 9689ft 281kts
15-May-19 12:41 33.369008 -112.585961 67 8806ft 260kts
15-May-19 12:42 33.397918 -112.510054 67 8001ft 245kts
15-May-19 12:44 33.424350 -112.435423 73 6936ft 239kts
15-May-19 12:45 33.428292 -112.356968 92 6004ft 233kts
15-May-19 12:46 33.428851 -112.283926 86 5541ft 213kts
15-May-19 12:47 33.438182 -112.213968 86 4196ft 190kts
15-May-19 12:48 33.441391 -112.157700 93 3109ft 149kts
15-May-19 12:49 33.441302 -112.108499 93 2479ft 147kts
15-May-19 12:50 33.440902 -112.059944 90 1726ft 144kts
15-May-19 12:51 33.440845 -112.013591 89 1143ft 119kts
15-May-19 12:52 33.439851 -111.998218 191 1143ft 10kts
15-May-19 12:53 33.437963 -111.998467 249 1143ft 4kts
15-May-19 12:54 33.437909 -111.998781 260 1143ft 0kts

Navigation Log

Ident Type
Flight plan parsing failed, navigation log unavailable